sensor_id;sensor_type;location;lat;lon;timestamp;pressure;altitude;pressure_sealevel;temperature;humidity
74228;BME280;62587;52.352;5.006;2023-01-23T00:00:27;103566.78;;;21.00;34.47
74228;BME280;62587;52.352;5.006;2023-01-23T00:02:53;103575.09;;;20.89;34.44
74228;BME280;62587;52.352;5.006;2023-01-23T00:05:18;103559.06;;;20.91;34.94
74228;BME280;62587;52.352;5.006;2023-01-23T00:07:44;103558.31;;;20.87;35.27
74228;BME280;62587;52.352;5.006;2023-01-23T00:10:10;103563.84;;;20.80;35.31
74228;BME280;62587;52.352;5.006;2023-01-23T00:12:35;103564.75;;;20.80;35.45
74228;BME280;62587;52.352;5.006;2023-01-23T00:15:01;103563.94;;;20.77;35.31
74228;BME280;62587;52.352;5.006;2023-01-23T00:17:26;103561.13;;;20.81;35.36
74228;BME280;62587;52.352;5.006;2023-01-23T00:19:53;103552.25;;;20.82;34.99
74228;BME280;62587;52.352;5.006;2023-01-23T00:22:18;103552.28;;;20.81;35.26
74228;BME280;62587;52.352;5.006;2023-01-23T00:24:44;103561.28;;;20.77;35.21
74228;BME280;62587;52.352;5.006;2023-01-23T00:27:09;103558.63;;;20.77;35.29
74228;BME280;62587;52.352;5.006;2023-01-23T00:29:35;103560.53;;;20.71;35.20
74228;BME280;62587;52.352;5.006;2023-01-23T00:32:00;103550.81;;;20.70;35.14
74228;BME280;62587;52.352;5.006;2023-01-23T00:34:25;103556.16;;;20.69;35.15
74228;BME280;62587;52.352;5.006;2023-01-23T00:36:51;103548.25;;;20.67;34.84
74228;BME280;62587;52.352;5.006;2023-01-23T00:39:18;103544.69;;;20.67;35.22
74228;BME280;62587;52.352;5.006;2023-01-23T00:41:45;103538.56;;;20.65;34.83
74228;BME280;62587;52.352;5.006;2023-01-23T00:44:11;103530.69;;;20.60;34.84
74228;BME280;62587;52.352;5.006;2023-01-23T00:46:36;103533.44;;;20.57;34.90
74228;BME280;62587;52.352;5.006;2023-01-23T00:49:02;103522.75;;;20.59;34.89
74228;BME280;62587;52.352;5.006;2023-01-23T00:51:27;103521.88;;;20.58;35.15
74228;BME280;62587;52.352;5.006;2023-01-23T00:53:53;103519.31;;;20.55;34.98
74228;BME280;62587;52.352;5.006;2023-01-23T00:56:18;103522.09;;;20.51;35.05
74228;BME280;62587;52.352;5.006;2023-01-23T00:58:44;103521.16;;;20.52;34.99
74228;BME280;62587;52.352;5.006;2023-01-23T01:01:09;103530.97;;;20.51;34.88
74228;BME280;62587;52.352;5.006;2023-01-23T01:03:35;103539.84;;;20.50;34.88
74228;BME280;62587;52.352;5.006;2023-01-23T01:06:01;103539.03;;;20.48;34.96
74228;BME280;62587;52.352;5.006;2023-01-23T01:08:27;103530.03;;;20.52;34.66
74228;BME280;62587;52.352;5.006;2023-01-23T01:10:52;103525.72;;;20.48;34.86
74228;BME280;62587;52.352;5.006;2023-01-23T01:13:18;103529.22;;;20.50;34.90
74228;BME280;62587;52.352;5.006;2023-01-23T01:15:47;103523.09;;;20.47;34.76
74228;BME280;62587;52.352;5.006;2023-01-23T01:18:13;103529.34;;;20.46;34.93
74228;BME280;62587;52.352;5.006;2023-01-23T01:20:41;103527.59;;;20.45;34.80
74228;BME280;62587;52.352;5.006;2023-01-23T01:23:06;103533.72;;;20.47;34.90
74228;BME280;62587;52.352;5.006;2023-01-23T01:25:32;103540.00;;;20.46;34.86
74228;BME280;62587;52.352;5.006;2023-01-23T01:27:57;103538.28;;;20.43;34.92
74228;BME280;62587;52.352;5.006;2023-01-23T01:30:23;103543.63;;;20.43;34.98
74228;BME280;62587;52.352;5.006;2023-01-23T01:32:52;103548.06;;;20.43;34.77
74228;BME280;62587;52.352;5.006;2023-01-23T01:35:17;103542.72;;;20.43;34.88
74228;BME280;62587;52.352;5.006;2023-01-23T01:37:43;103549.00;;;20.40;34.94
74228;BME280;62587;52.352;5.006;2023-01-23T01:40:13;103543.69;;;20.40;34.89
74228;BME280;62587;52.352;5.006;2023-01-23T01:42:41;103548.13;;;20.41;34.86
74228;BME280;62587;52.352;5.006;2023-01-23T01:48:11;103540.06;;;20.43;34.83
74228;BME280;62587;52.352;5.006;2023-01-23T01:50:37;103537.47;;;20.41;34.83
74228;BME280;62587;52.352;5.006;2023-01-23T01:53:03;103540.13;;;20.41;34.89
74228;BME280;62587;52.352;5.006;2023-01-23T01:55:29;103549.06;;;20.39;34.83
74228;BME280;62587;52.352;5.006;2023-01-23T01:57:55;103552.59;;;20.39;34.67
74228;BME280;62587;52.352;5.006;2023-01-23T02:00:21;103555.28;;;20.39;34.91
74228;BME280;62587;52.352;5.006;2023-01-23T02:02:53;103549.09;;;20.37;35.14
74228;BME280;62587;52.352;5.006;2023-01-23T02:05:23;103549.19;;;20.34;34.74
74228;BME280;62587;52.352;5.006;2023-01-23T02:07:57;103557.13;;;20.36;34.74
74228;BME280;62587;52.352;5.006;2023-01-23T02:10:25;103554.53;;;20.34;34.63
74228;BME280;62587;52.352;5.006;2023-01-23T02:12:51;103562.41;;;20.37;34.64
74228;BME280;62587;52.352;5.006;2023-01-23T02:15:18;103557.13;;;20.36;34.70
74228;BME280;62587;52.352;5.006;2023-01-23T02:17:45;103556.25;;;20.35;34.60
74228;BME280;62587;52.352;5.006;2023-01-23T02:20:24;103569.66;;;20.32;34.57
74228;BME280;62587;52.352;5.006;2023-01-23T02:26:03;103572.25;;;20.34;34.87
74228;BME280;62587;52.352;5.006;2023-01-23T02:28:44;103570.50;;;20.33;34.81
74228;BME280;62587;52.352;5.006;2023-01-23T02:31:10;103578.50;;;20.33;34.94
74228;BME280;62587;52.352;5.006;2023-01-23T02:36:02;103574.09;;;20.32;34.63
74228;BME280;62587;52.352;5.006;2023-01-23T02:38:36;103573.28;;;20.30;34.87
74228;BME280;62587;52.352;5.006;2023-01-23T02:41:05;103582.09;;;20.30;34.91
74228;BME280;62587;52.352;5.006;2023-01-23T02:43:34;103574.13;;;20.30;34.62
74228;BME280;62587;52.352;5.006;2023-01-23T02:46:06;103567.06;;;20.29;34.92
74228;BME280;62587;52.352;5.006;2023-01-23T02:48:32;103573.28;;;20.30;34.63
74228;BME280;62587;52.352;5.006;2023-01-23T02:50:57;103568.84;;;20.29;34.68
74228;BME280;62587;52.352;5.006;2023-01-23T02:53:23;103568.91;;;20.27;34.69
74228;BME280;62587;52.352;5.006;2023-01-23T02:55:50;103572.47;;;20.26;35.14
74228;BME280;62587;52.352;5.006;2023-01-23T02:58:15;103574.22;;;20.27;34.87
74228;BME280;62587;52.352;5.006;2023-01-23T03:00:59;103569.75;;;20.28;34.71
74228;BME280;62587;52.352;5.006;2023-01-23T03:03:25;103573.38;;;20.25;34.91
74228;BME280;62587;52.352;5.006;2023-01-23T03:05:50;103576.97;;;20.24;35.13
74228;BME280;62587;52.352;5.006;2023-01-23T03:08:15;103576.09;;;20.24;34.78
74228;BME280;62587;52.352;5.006;2023-01-23T03:10:41;103578.75;;;20.24;34.50
74228;BME280;62587;52.352;5.006;2023-01-23T03:13:06;103584.13;;;20.22;34.80
74228;BME280;62587;52.352;5.006;2023-01-23T03:15:33;103582.38;;;20.20;34.61
74228;BME280;62587;52.352;5.006;2023-01-23T03:18:03;103589.41;;;20.21;34.93
74228;BME280;62587;52.352;5.006;2023-01-23T03:20:28;103591.22;;;20.20;34.71
74228;BME280;62587;52.352;5.006;2023-01-23T03:22:54;103589.41;;;20.21;34.55
74228;BME280;62587;52.352;5.006;2023-01-23T03:25:20;103597.50;;;20.18;34.80
74228;BME280;62587;52.352;5.006;2023-01-23T03:27:45;103598.34;;;20.18;34.81
74228;BME280;62587;52.352;5.006;2023-01-23T03:30:15;103598.34;;;20.18;34.85
74228;BME280;62587;52.352;5.006;2023-01-23T03:32:44;103598.41;;;20.17;34.95
74228;BME280;62587;52.352;5.006;2023-01-23T03:35:12;103598.41;;;20.17;34.66
74228;BME280;62587;52.352;5.006;2023-01-23T03:37:48;103600.19;;;20.16;35.02
74228;BME280;62587;52.352;5.006;2023-01-23T03:40:23;103599.31;;;20.16;35.14
74228;BME280;62587;52.352;5.006;2023-01-23T03:43:08;103603.78;;;20.14;34.75
74228;BME280;62587;52.352;5.006;2023-01-23T03:45:33;103602.03;;;20.14;34.67
74228;BME280;62587;52.352;5.006;2023-01-23T03:47:59;103602.84;;;20.16;34.98
74228;BME280;62587;52.352;5.006;2023-01-23T03:50:24;103601.13;;;20.15;34.83
74228;BME280;62587;52.352;5.006;2023-01-23T03:52:50;103601.00;;;20.18;34.64
74228;BME280;62587;52.352;5.006;2023-01-23T03:55:15;103600.16;;;20.18;34.87
74228;BME280;62587;52.352;5.006;2023-01-23T03:57:41;103600.16;;;20.18;34.66
74228;BME280;62587;52.352;5.006;2023-01-23T04:00:08;103611.59;;;20.21;35.09
74228;BME280;62587;52.352;5.006;2023-01-23T04:02:33;103608.94;;;20.21;34.60
74228;BME280;62587;52.352;5.006;2023-01-23T04:04:59;103608.06;;;20.22;34.45
74228;BME280;62587;52.352;5.006;2023-01-23T04:07:24;103600.06;;;20.22;34.61
74228;BME280;62587;52.352;5.006;2023-01-23T04:09:49;103599.13;;;20.25;34.60
74228;BME280;62587;52.352;5.006;2023-01-23T04:12:15;103595.53;;;20.26;34.68
74228;BME280;62587;52.352;5.006;2023-01-23T04:14:41;103592.94;;;20.24;34.86
74228;BME280;62587;52.352;5.006;2023-01-23T04:17:07;103591.16;;;20.25;34.76
74228;BME280;62587;52.352;5.006;2023-01-23T04:19:33;103592.97;;;20.23;34.82
74228;BME280;62587;52.352;5.006;2023-01-23T04:21:59;103591.16;;;20.25;34.37
74228;BME280;62587;52.352;5.006;2023-01-23T04:24:24;103600.84;;;20.26;34.62
74228;BME280;62587;52.352;5.006;2023-01-23T04:26:50;103597.28;;;20.27;34.41
74228;BME280;62587;52.352;5.006;2023-01-23T04:29:15;103606.97;;;20.29;34.48
74228;BME280;62587;52.352;5.006;2023-01-23T04:31:41;103601.66;;;20.29;34.41
74228;BME280;62587;52.352;5.006;2023-01-23T04:34:07;103603.50;;;20.26;34.52
74228;BME280;62587;52.352;5.006;2023-01-23T04:36:33;103603.50;;;20.26;34.29
74228;BME280;62587;52.352;5.006;2023-01-23T04:38:59;103604.34;;;20.28;34.24
74228;BME280;62587;52.352;5.006;2023-01-23T04:41:27;103605.19;;;20.30;34.28
74228;BME280;62587;52.352;5.006;2023-01-23T04:43:53;103605.28;;;20.27;34.37
74228;BME280;62587;52.352;5.006;2023-01-23T04:46:18;103610.53;;;20.28;34.35
74228;BME280;62587;52.352;5.006;2023-01-23T04:48:44;103614.97;;;20.28;34.43
74228;BME280;62587;52.352;5.006;2023-01-23T04:51:09;103623.91;;;20.27;34.07
74228;BME280;62587;52.352;5.006;2023-01-23T04:53:35;103617.69;;;20.26;34.29
74228;BME280;62587;52.352;5.006;2023-01-23T04:56:01;103618.66;;;20.24;34.43
74228;BME280;62587;52.352;5.006;2023-01-23T04:58:27;103618.56;;;20.27;34.69
74228;BME280;62587;52.352;5.006;2023-01-23T05:00:52;103617.69;;;20.26;34.25
74228;BME280;62587;52.352;5.006;2023-01-23T05:03:18;103623.91;;;20.25;34.24
74228;BME280;62587;52.352;5.006;2023-01-23T05:05:43;103620.31;;;20.28;34.43
74228;BME280;62587;52.352;5.006;2023-01-23T05:08:12;103621.31;;;20.24;34.20
74228;BME280;62587;52.352;5.006;2023-01-23T05:10:38;103620.41;;;20.25;34.40
74228;BME280;62587;52.352;5.006;2023-01-23T05:13:04;103625.75;;;20.23;34.25
74228;BME280;62587;52.352;5.006;2023-01-23T05:15:29;103623.09;;;20.23;34.18
74228;BME280;62587;52.352;5.006;2023-01-23T05:17:55;103626.63;;;20.24;34.61
74228;BME280;62587;52.352;5.006;2023-01-23T05:20:20;103607.16;;;20.22;34.50
74228;BME280;62587;52.352;5.006;2023-01-23T05:22:48;103616.00;;;20.24;34.49
74228;BME280;62587;52.352;5.006;2023-01-23T05:25:27;103608.94;;;20.23;34.42
74228;BME280;62587;52.352;5.006;2023-01-23T05:27:53;103602.63;;;20.27;34.03
74228;BME280;62587;52.352;5.006;2023-01-23T05:30:21;103609.78;;;20.25;33.99
74228;BME280;62587;52.352;5.006;2023-01-23T05:32:46;103622.19;;;20.24;34.09
74228;BME280;62587;52.352;5.006;2023-01-23T05:35:13;103621.25;;;20.27;33.98
74228;BME280;62587;52.352;5.006;2023-01-23T05:37:39;103623.91;;;20.25;34.51
74228;BME280;62587;52.352;5.006;2023-01-23T05:40:06;103621.38;;;20.22;34.35
74228;BME280;62587;52.352;5.006;2023-01-23T05:42:34;103627.59;;;20.20;34.42
74228;BME280;62587;52.352;5.006;2023-01-23T05:44:59;103631.94;;;20.24;34.14
74228;BME280;62587;52.352;5.006;2023-01-23T05:47:25;103630.22;;;20.21;34.17
74228;BME280;62587;52.352;5.006;2023-01-23T05:49:52;103638.22;;;20.23;34.13
74228;BME280;62587;52.352;5.006;2023-01-23T05:52:17;103631.06;;;20.23;34.19
74228;BME280;62587;52.352;5.006;2023-01-23T05:54:42;103630.22;;;20.21;34.24
74228;BME280;62587;52.352;5.006;2023-01-23T05:57:08;103636.47;;;20.19;34.03
74228;BME280;62587;52.352;5.006;2023-01-23T05:59:33;103629.44;;;20.16;34.63
74228;BME280;62587;52.352;5.006;2023-01-23T06:01:59;103640.09;;;20.16;34.24
74228;BME280;62587;52.352;5.006;2023-01-23T06:04:24;103633.81;;;20.19;34.34
74228;BME280;62587;52.352;5.006;2023-01-23T06:06:50;103633.88;;;20.17;34.48
74228;BME280;62587;52.352;5.006;2023-01-23T06:09:15;103633.88;;;20.17;34.15
74228;BME280;62587;52.352;5.006;2023-01-23T06:11:40;103634.69;;;20.19;34.43
74228;BME280;62587;52.352;5.006;2023-01-23T06:14:06;103633.81;;;20.19;34.44
74228;BME280;62587;52.352;5.006;2023-01-23T06:16:31;103637.41;;;20.18;34.13
74228;BME280;62587;52.352;5.006;2023-01-23T06:18:57;103637.41;;;20.18;34.47
74228;BME280;62587;52.352;5.006;2023-01-23T06:21:22;103643.56;;;20.18;34.63
74228;BME280;62587;52.352;5.006;2023-01-23T06:23:47;103644.53;;;20.16;34.23
74228;BME280;62587;52.352;5.006;2023-01-23T06:26:12;103647.19;;;20.16;34.41
74228;BME280;62587;52.352;5.006;2023-01-23T06:28:38;103645.47;;;20.15;34.21
74228;BME280;62587;52.352;5.006;2023-01-23T06:31:04;103649.00;;;20.15;34.27
74228;BME280;62587;52.352;5.006;2023-01-23T06:33:31;103643.69;;;20.15;34.21
74228;BME280;62587;52.352;5.006;2023-01-23T06:36:02;103651.69;;;20.14;34.11
74228;BME280;62587;52.352;5.006;2023-01-23T06:38:28;103649.84;;;20.16;34.53
74228;BME280;62587;52.352;5.006;2023-01-23T06:40:54;103656.06;;;20.16;34.26
74228;BME280;62587;52.352;5.006;2023-01-23T06:43:20;103654.22;;;20.18;34.42
74228;BME280;62587;52.352;5.006;2023-01-23T06:45:46;103654.28;;;20.17;34.51
74228;BME280;62587;52.352;5.006;2023-01-23T06:48:12;103643.56;;;20.18;34.32
74228;BME280;62587;52.352;5.006;2023-01-23T06:50:38;103644.50;;;20.17;34.42
74228;BME280;62587;52.352;5.006;2023-01-23T06:53:04;103646.34;;;20.15;34.33
74228;BME280;62587;52.352;5.006;2023-01-23T06:55:30;103642.81;;;20.15;34.46
74228;BME280;62587;52.352;5.006;2023-01-23T06:57:56;103646.28;;;20.17;34.14
74228;BME280;62587;52.352;5.006;2023-01-23T07:00:21;103652.56;;;20.14;34.06
74228;BME280;62587;52.352;5.006;2023-01-23T07:02:47;103652.50;;;20.17;34.14
74228;BME280;62587;52.352;5.006;2023-01-23T07:05:12;103649.84;;;20.17;34.55
74228;BME280;62587;52.352;5.006;2023-01-23T07:07:38;103656.88;;;20.18;34.37
74228;BME280;62587;52.352;5.006;2023-01-23T07:10:03;103663.13;;;20.17;34.25
74228;BME280;62587;52.352;5.006;2023-01-23T07:12:29;103663.88;;;20.24;34.13
74228;BME280;62587;52.352;5.006;2023-01-23T07:14:54;103664.75;;;20.24;34.14
74228;BME280;62587;52.352;5.006;2023-01-23T07:17:20;103671.91;;;20.21;34.24
74228;BME280;62587;52.352;5.006;2023-01-23T07:19:45;103675.44;;;20.21;34.42
74228;BME280;62587;52.352;5.006;2023-01-23T07:22:10;103681.63;;;20.22;34.38
74228;BME280;62587;52.352;5.006;2023-01-23T07:24:36;103672.84;;;20.18;34.32
74228;BME280;62587;52.352;5.006;2023-01-23T07:27:02;103661.31;;;20.19;34.64
74228;BME280;62587;52.352;5.006;2023-01-23T07:29:27;103669.53;;;20.10;34.88
74228;BME280;62587;52.352;5.006;2023-01-23T07:31:52;103676.75;;;20.03;34.97
74228;BME280;62587;52.352;5.006;2023-01-23T07:34:18;103675.91;;;20.01;35.84
74228;BME280;62587;52.352;5.006;2023-01-23T07:36:43;103684.94;;;19.94;35.72
74228;BME280;62587;52.352;5.006;2023-01-23T07:39:08;103682.16;;;20.00;35.81
74228;BME280;62587;52.352;5.006;2023-01-23T07:41:34;103690.97;;;20.02;36.00
74228;BME280;62587;52.352;5.006;2023-01-23T07:43:59;103694.34;;;20.11;36.04
74228;BME280;62587;52.352;5.006;2023-01-23T07:46:24;103692.34;;;20.19;35.97
74228;BME280;62587;52.352;5.006;2023-01-23T07:48:51;103693.03;;;20.28;35.65
74228;BME280;62587;52.352;5.006;2023-01-23T07:51:16;103690.25;;;20.33;36.24
74228;BME280;62587;52.352;5.006;2023-01-23T07:53:42;103690.94;;;20.41;37.01
74228;BME280;62587;52.352;5.006;2023-01-23T07:56:07;103699.63;;;20.47;36.67
74228;BME280;62587;52.352;5.006;2023-01-23T07:58:32;103697.56;;;20.58;36.50
74228;BME280;62587;52.352;5.006;2023-01-23T08:00:58;103708.06;;;20.64;36.33
74228;BME280;62587;52.352;5.006;2023-01-23T08:03:23;103700.75;;;20.73;36.07
74228;BME280;62587;52.352;5.006;2023-01-23T08:05:53;103708.56;;;20.79;36.28
74228;BME280;62587;52.352;5.006;2023-01-23T08:08:18;103699.59;;;20.83;35.89
74228;BME280;62587;52.352;5.006;2023-01-23T08:10:44;103706.50;;;20.90;35.99
74228;BME280;62587;52.352;5.006;2023-01-23T08:13:09;103709.03;;;20.94;35.79
74228;BME280;62587;52.352;5.006;2023-01-23T08:15:36;103723.03;;;21.01;36.07
74228;BME280;62587;52.352;5.006;2023-01-23T08:18:03;103727.38;;;21.06;35.97
74228;BME280;62587;52.352;5.006;2023-01-23T08:20:28;103714.78;;;21.11;35.54
74228;BME280;62587;52.352;5.006;2023-01-23T08:22:53;103712.75;;;21.19;35.46
74228;BME280;62587;52.352;5.006;2023-01-23T08:25:20;103730.44;;;21.23;35.41
74228;BME280;62587;52.352;5.006;2023-01-23T08:27:45;103734.75;;;21.26;35.16
74228;BME280;62587;52.352;5.006;2023-01-23T08:30:11;103746.19;;;21.31;34.94
74228;BME280;62587;52.352;5.006;2023-01-23T08:32:36;103739.84;;;21.35;34.84
74228;BME280;62587;52.352;5.006;2023-01-23T08:35:02;103736.22;;;21.38;34.56
74228;BME280;62587;52.352;5.006;2023-01-23T08:37:29;103750.31;;;21.43;34.64
74228;BME280;62587;52.352;5.006;2023-01-23T08:39:54;103753.69;;;21.48;34.58
74228;BME280;62587;52.352;5.006;2023-01-23T08:42:19;103749.16;;;21.51;34.39
74228;BME280;62587;52.352;5.006;2023-01-23T08:44:45;103753.50;;;21.54;34.22
74228;BME280;62587;52.352;5.006;2023-01-23T08:47:10;103748.03;;;21.58;34.67
74228;BME280;62587;52.352;5.006;2023-01-23T08:49:35;103746.19;;;21.62;34.49
74228;BME280;62587;52.352;5.006;2023-01-23T08:52:01;103753.22;;;21.64;34.33
74228;BME280;62587;52.352;5.006;2023-01-23T08:54:26;103753.16;;;21.66;34.12
74228;BME280;62587;52.352;5.006;2023-01-23T08:56:51;103754.94;;;21.65;34.21
74228;BME280;62587;52.352;5.006;2023-01-23T08:59:17;103750.50;;;21.66;34.16
74228;BME280;62587;52.352;5.006;2023-01-23T09:01:42;103762.19;;;21.62;34.32
74228;BME280;62587;52.352;5.006;2023-01-23T09:04:07;103759.41;;;21.65;34.20
74228;BME280;62587;52.352;5.006;2023-01-23T09:06:33;103763.00;;;21.64;34.29
74228;BME280;62587;52.352;5.006;2023-01-23T09:08:58;103762.56;;;21.48;35.76
74228;BME280;62587;52.352;5.006;2023-01-23T09:11:23;103765.00;;;21.56;35.89
74228;BME280;62587;52.352;5.006;2023-01-23T09:13:49;103767.72;;;21.54;35.32
74228;BME280;62587;52.352;5.006;2023-01-23T09:16:15;103765.97;;;21.53;35.23
74228;BME280;62587;52.352;5.006;2023-01-23T09:18:40;103770.56;;;21.48;34.94
74228;BME280;62587;52.352;5.006;2023-01-23T09:21:10;103759.28;;;21.38;35.13
74228;BME280;62587;52.352;5.006;2023-01-23T09:23:37;103767.16;;;21.43;35.15
74228;BME280;62587;52.352;5.006;2023-01-23T09:26:10;103778.63;;;21.45;34.93
74228;BME280;62587;52.352;5.006;2023-01-23T09:28:38;103776.03;;;21.44;34.97
74228;BME280;62587;52.352;5.006;2023-01-23T09:31:07;103757.31;;;21.45;35.04
74228;BME280;62587;52.352;5.006;2023-01-23T09:37:11;103773.50;;;21.39;34.98
74228;BME280;62587;52.352;5.006;2023-01-23T09:39:39;103770.28;;;21.26;34.98
74228;BME280;62587;52.352;5.006;2023-01-23T09:42:04;103782.09;;;21.18;35.23
74228;BME280;62587;52.352;5.006;2023-01-23T09:44:44;103775.00;;;21.17;35.47
74228;BME280;62587;52.352;5.006;2023-01-23T09:47:33;103778.63;;;21.14;35.37
74228;BME280;62587;52.352;5.006;2023-01-23T09:50:06;103781.28;;;21.14;35.05
74228;BME280;62587;52.352;5.006;2023-01-23T09:52:36;103785.91;;;21.08;35.41
74228;BME280;62587;52.352;5.006;2023-01-23T09:55:14;103786.88;;;21.05;35.28
74228;BME280;62587;52.352;5.006;2023-01-23T09:57:46;103784.13;;;21.08;35.31
74228;BME280;62587;52.352;5.006;2023-01-23T10:00:23;103788.47;;;21.12;35.35
74228;BME280;62587;52.352;5.006;2023-01-23T10:02:49;103782.16;;;21.15;35.40
74228;BME280;62587;52.352;5.006;2023-01-23T10:05:21;103787.28;;;21.22;34.83
74228;BME280;62587;52.352;5.006;2023-01-23T10:08:23;103785.25;;;21.32;34.80
74228;BME280;62587;52.352;5.006;2023-01-23T10:14:03;103768.81;;;21.47;34.11
74228;BME280;62587;52.352;5.006;2023-01-23T10:16:34;103770.97;;;21.34;33.84
74228;BME280;62587;52.352;5.006;2023-01-23T10:22:00;103766.47;;;21.36;33.88
74228;BME280;62587;52.352;5.006;2023-01-23T10:26:51;103765.38;;;21.44;33.82
74228;BME280;62587;52.352;5.006;2023-01-23T10:29:36;103763.63;;;21.43;33.90
74228;BME280;62587;52.352;5.006;2023-01-23T10:32:03;103759.00;;;21.48;34.35
74228;BME280;62587;52.352;5.006;2023-01-23T10:34:59;103753.78;;;21.45;33.82
74228;BME280;62587;52.352;5.006;2023-01-23T10:37:48;103757.41;;;21.42;34.07
74228;BME280;62587;52.352;5.006;2023-01-23T10:40:20;103752.84;;;21.46;34.68
74228;BME280;62587;52.352;5.006;2023-01-23T10:43:12;103760.72;;;21.50;33.66
74228;BME280;62587;52.352;5.006;2023-01-23T10:45:39;103763.22;;;21.56;34.02
74228;BME280;62587;52.352;5.006;2023-01-23T10:48:47;103761.28;;;21.61;34.72
74228;BME280;62587;52.352;5.006;2023-01-23T10:54:09;103757.75;;;21.61;35.80
74228;BME280;62587;52.352;5.006;2023-01-23T10:56:45;103765.75;;;21.61;34.09
74228;BME280;62587;52.352;5.006;2023-01-23T10:59:19;103769.22;;;21.64;34.47
74228;BME280;62587;52.352;5.006;2023-01-23T11:01:55;103762.19;;;21.60;35.05
74228;BME280;62587;52.352;5.006;2023-01-23T11:04:23;103759.50;;;21.62;34.70
74228;BME280;62587;52.352;5.006;2023-01-23T11:07:05;103765.47;;;21.70;34.47
74228;BME280;62587;52.352;5.006;2023-01-23T11:09:31;103751.25;;;21.69;35.08
74228;BME280;62587;52.352;5.006;2023-01-23T11:12:03;103769.97;;;21.68;35.02
74228;BME280;62587;52.352;5.006;2023-01-23T11:14:31;103768.34;;;21.62;35.99
74228;BME280;62587;52.352;5.006;2023-01-23T11:17:18;103768.22;;;21.67;35.79
74228;BME280;62587;52.352;5.006;2023-01-23T11:19:46;103769.81;;;21.74;35.62
74228;BME280;62587;52.352;5.006;2023-01-23T11:22:32;103766.19;;;21.75;34.54
74228;BME280;62587;52.352;5.006;2023-01-23T11:24:58;103762.72;;;21.73;35.85
74228;BME280;62587;52.352;5.006;2023-01-23T11:27:26;103761.22;;;21.64;36.48
74228;BME280;62587;52.352;5.006;2023-01-23T11:32:53;103758.13;;;21.78;36.54
74228;BME280;62587;52.352;5.006;2023-01-23T11:35:42;103763.03;;;21.93;35.94
74228;BME280;62587;52.352;5.006;2023-01-23T11:38:10;103761.63;;;22.09;35.35
74228;BME280;62587;52.352;5.006;2023-01-23T11:40:37;103756.63;;;22.26;34.73
74228;BME280;62587;52.352;5.006;2023-01-23T11:43:02;103758.03;;;22.36;34.50
74228;BME280;62587;52.352;5.006;2023-01-23T11:51:24;103750.78;;;22.14;35.04
74228;BME280;62587;52.352;5.006;2023-01-23T11:56:54;103747.88;;;21.93;35.27
74228;BME280;62587;52.352;5.006;2023-01-23T11:59:39;103752.63;;;21.82;36.60
74228;BME280;62587;52.352;5.006;2023-01-23T12:05:06;103760.47;;;21.88;35.80
74228;BME280;62587;52.352;5.006;2023-01-23T12:10:25;103753.94;;;21.98;35.51
74228;BME280;62587;52.352;5.006;2023-01-23T12:13:09;103756.69;;;21.95;35.36
74228;BME280;62587;52.352;5.006;2023-01-23T12:21:19;103755.47;;;21.76;36.03
74228;BME280;62587;52.352;5.006;2023-01-23T12:24:09;103751.03;;;21.77;35.59
74228;BME280;62587;52.352;5.006;2023-01-23T12:26:46;103755.75;;;21.67;36.18
74228;BME280;62587;52.352;5.006;2023-01-23T12:29:36;103760.19;;;21.68;36.44
74228;BME280;62587;52.352;5.006;2023-01-23T12:40:21;103785.50;;;21.84;34.89
74228;BME280;62587;52.352;5.006;2023-01-23T12:43:01;103781.88;;;21.87;34.92
74228;BME280;62587;52.352;5.006;2023-01-23T12:45:29;103783.56;;;21.89;34.54
74228;BME280;62587;52.352;5.006;2023-01-23T12:50:39;103778.19;;;21.91;34.50
74228;BME280;62587;52.352;5.006;2023-01-23T12:53:12;103774.66;;;21.90;34.50
74228;BME280;62587;52.352;5.006;2023-01-23T12:58:19;103761.22;;;21.93;34.55
74228;BME280;62587;52.352;5.006;2023-01-23T13:03:45;103772.63;;;21.98;34.54
74228;BME280;62587;52.352;5.006;2023-01-23T13:11:22;103765.41;;;22.02;34.17
74228;BME280;62587;52.352;5.006;2023-01-23T13:16:53;103760.78;;;22.07;34.36
74228;BME280;62587;52.352;5.006;2023-01-23T13:19:28;103760.69;;;22.10;34.24
74228;BME280;62587;52.352;5.006;2023-01-23T13:22:26;103764.22;;;22.11;34.24
74228;BME280;62587;52.352;5.006;2023-01-23T13:24:59;103754.50;;;22.10;34.04
74228;BME280;62587;52.352;5.006;2023-01-23T13:32:54;103752.50;;;22.16;34.48
74228;BME280;62587;52.352;5.006;2023-01-23T13:46:11;103727.66;;;22.14;34.77
74228;BME280;62587;52.352;5.006;2023-01-23T13:52:11;103708.00;;;22.17;34.14
74228;BME280;62587;52.352;5.006;2023-01-23T13:54:56;103701.16;;;22.08;35.00
74228;BME280;62587;52.352;5.006;2023-01-23T13:57:41;103701.84;;;22.15;34.62
74228;BME280;62587;52.352;5.006;2023-01-23T14:00:21;103702.66;;;22.17;34.28
74228;BME280;62587;52.352;5.006;2023-01-23T14:02:56;103697.19;;;22.20;34.65
74228;BME280;62587;52.352;5.006;2023-01-23T14:05:42;103695.47;;;22.19;34.26
74228;BME280;62587;52.352;5.006;2023-01-23T14:08:22;103692.00;;;22.17;34.14
74228;BME280;62587;52.352;5.006;2023-01-23T14:10:48;103700.03;;;22.15;34.44
74228;BME280;62587;52.352;5.006;2023-01-23T14:13:16;103699.13;;;22.16;34.87
74228;BME280;62587;52.352;5.006;2023-01-23T14:15:48;103702.69;;;22.15;34.23
74228;BME280;62587;52.352;5.006;2023-01-23T14:23:34;103720.72;;;22.09;34.73
74228;BME280;62587;52.352;5.006;2023-01-23T14:26:01;103726.19;;;22.04;34.51
74228;BME280;62587;52.352;5.006;2023-01-23T14:28:28;103722.13;;;21.92;34.69
74228;BME280;62587;52.352;5.006;2023-01-23T14:31:00;103730.22;;;21.89;34.36
74228;BME280;62587;52.352;5.006;2023-01-23T14:33:26;103732.19;;;21.83;34.18